createdAt,value
2017-10-19T00:01:25.573Z,21.00
2017-10-19T00:03:53.016Z,20.07
2017-10-19T00:06:20.479Z,16.30
2017-10-19T00:08:47.925Z,21.57
2017-10-19T00:11:15.392Z,19.43
2017-10-19T00:13:42.866Z,20.03
2017-10-19T00:16:10.321Z,20.63
2017-10-19T00:18:37.769Z,19.77
2017-10-19T00:21:05.233Z,19.87
2017-10-19T00:23:32.708Z,20.70
2017-10-19T00:26:00.530Z,21.23
2017-10-19T00:28:27.980Z,22.00
2017-10-19T00:30:55.435Z,20.23
2017-10-19T00:33:22.997Z,21.70
2017-10-19T00:35:50.446Z,20.13
2017-10-19T00:38:17.893Z,20.67
2017-10-19T00:40:46.128Z,19.37
2017-10-19T00:43:13.593Z,22.20
2017-10-19T00:45:41.041Z,20.63
2017-10-19T00:48:08.504Z,20.80
2017-10-19T00:50:35.980Z,21.30
2017-10-19T00:53:03.424Z,22.93
2017-10-19T00:55:30.909Z,20.57
2017-10-19T00:57:59.129Z,24.00
2017-10-19T01:00:26.568Z,20.80
2017-10-19T01:02:54.050Z,19.50
2017-10-19T01:05:21.492Z,22.30
2017-10-19T01:07:49.256Z,21.30
2017-10-19T01:10:16.721Z,22.80
2017-10-19T01:12:44.172Z,22.03
2017-10-19T01:15:11.656Z,23.33
2017-10-19T01:17:39.105Z,21.70
2017-10-19T01:20:06.553Z,24.97
2017-10-19T01:22:34.025Z,21.73
2017-10-19T01:25:01.469Z,23.10
2017-10-19T01:27:28.949Z,23.40
2017-10-19T01:29:56.392Z,20.50
2017-10-19T01:32:23.841Z,22.43
2017-10-19T01:34:51.313Z,24.77
2017-10-19T01:37:18.760Z,23.50
2017-10-19T01:39:46.206Z,24.80
2017-10-19T01:42:13.679Z,23.17
2017-10-19T01:44:45.909Z,21.77
2017-10-19T01:47:13.372Z,22.30
2017-10-19T01:49:52.692Z,20.73
2017-10-19T01:52:20.928Z,20.97
2017-10-19T01:54:53.189Z,20.00
2017-10-19T01:57:20.652Z,25.10
2017-10-19T01:59:48.696Z,22.33
2017-10-19T02:02:16.180Z,23.73
2017-10-19T02:04:43.620Z,25.37
2017-10-19T02:07:11.078Z,22.53
2017-10-19T02:09:38.553Z,21.57
2017-10-19T02:12:06.005Z,21.77
2017-10-19T02:14:33.477Z,19.70
2017-10-19T02:17:00.917Z,23.13
2017-10-19T02:19:28.380Z,22.00
2017-10-19T02:21:55.828Z,22.60
2017-10-19T02:24:23.301Z,21.37
2017-10-19T02:26:50.774Z,21.73
2017-10-19T02:29:18.252Z,21.17
2017-10-19T02:31:45.701Z,21.77
2017-10-19T02:34:13.183Z,22.73
2017-10-19T02:36:41.410Z,22.80
2017-10-19T02:39:08.870Z,22.90
2017-10-19T02:41:36.346Z,21.47
2017-10-19T02:44:03.793Z,23.50
2017-10-19T02:46:31.242Z,21.20
2017-10-19T02:48:58.711Z,20.83
2017-10-19T02:51:26.157Z,20.20
2017-10-19T02:53:53.623Z,20.60
2017-10-19T02:56:21.070Z,21.03
2017-10-19T02:58:48.542Z,23.00
2017-10-19T03:01:15.992Z,24.50
2017-10-19T03:03:43.449Z,22.73
2017-10-19T03:06:10.903Z,23.00
2017-10-19T03:08:38.374Z,22.67
2017-10-19T03:11:05.816Z,22.73
2017-10-19T03:13:33.272Z,22.13
2017-10-19T03:16:00.765Z,22.53
2017-10-19T03:18:28.981Z,22.40
2017-10-19T03:20:56.434Z,24.47
2017-10-19T03:23:23.906Z,25.57
2017-10-19T03:25:51.349Z,22.37
2017-10-19T03:28:18.826Z,23.73
2017-10-19T03:30:46.281Z,22.80
2017-10-19T03:33:13.762Z,22.00
2017-10-19T03:35:41.318Z,23.60
2017-10-19T03:38:08.749Z,23.37
2017-10-19T03:40:36.226Z,25.10
2017-10-19T03:43:03.698Z,23.07
2017-10-19T03:45:31.134Z,22.50
2017-10-19T03:47:58.621Z,27.27
2017-10-19T03:50:26.089Z,24.90
2017-10-19T03:52:53.566Z,25.10
2017-10-19T03:55:21.805Z,23.97
2017-10-19T03:57:49.260Z,23.93
2017-10-19T04:00:16.745Z,25.60
2017-10-19T04:02:44.962Z,24.93
2017-10-19T04:05:12.414Z,22.77
2017-10-19T04:07:39.887Z,23.77
2017-10-19T04:10:07.358Z,24.27
2017-10-19T04:12:34.825Z,25.57
2017-10-19T04:15:02.282Z,23.50
2017-10-19T04:17:29.738Z,26.97
2017-10-19T04:19:57.197Z,28.53
2017-10-19T04:22:24.638Z,22.23
2017-10-19T04:24:52.126Z,24.07
2017-10-19T04:27:19.584Z,27.20
2017-10-19T04:29:47.032Z,24.30
2017-10-19T04:32:14.492Z,22.57
2017-10-19T04:34:41.946Z,22.10
2017-10-19T04:37:09.426Z,24.27
2017-10-19T04:39:36.873Z,20.80
2017-10-19T04:42:04.356Z,23.67
2017-10-19T04:44:32.607Z,21.00
2017-10-19T04:47:00.067Z,22.63
2017-10-19T04:49:27.504Z,27.93
2017-10-19T04:51:54.973Z,25.40
2017-10-19T04:54:22.426Z,22.03
2017-10-19T04:56:49.948Z,22.93
2017-10-19T04:59:17.380Z,25.77
2017-10-19T05:01:45.609Z,20.83
2017-10-19T05:04:13.058Z,23.53
2017-10-19T05:06:40.521Z,26.37
2017-10-19T05:09:08.002Z,22.70
2017-10-19T05:11:35.440Z,23.50
2017-10-19T05:14:02.888Z,26.97
2017-10-19T05:16:30.374Z,26.50
2017-10-19T05:18:57.821Z,23.10
2017-10-19T05:21:25.264Z,24.70
2017-10-19T05:23:52.729Z,25.27
2017-10-19T05:26:20.185Z,24.63
2017-10-19T05:28:47.644Z,26.80
2017-10-19T05:31:15.089Z,24.07
2017-10-19T05:33:42.552Z,25.30
2017-10-19T05:36:09.996Z,23.30
2017-10-19T05:38:37.462Z,26.73
2017-10-19T05:41:04.917Z,26.80
2017-10-19T05:43:32.376Z,25.00
2017-10-19T05:45:59.825Z,26.33
2017-10-19T05:48:27.315Z,21.50
2017-10-19T05:50:54.803Z,24.63
2017-10-19T05:53:23.020Z,25.27
2017-10-19T05:55:50.513Z,26.20
2017-10-19T05:58:17.956Z,25.77
2017-10-19T06:00:45.411Z,23.57
2017-10-19T06:03:12.873Z,22.47
2017-10-19T06:05:41.154Z,23.77
2017-10-19T06:08:08.611Z,25.67
2017-10-19T06:10:36.088Z,25.70
2017-10-19T06:13:03.567Z,23.50
2017-10-19T06:15:31.781Z,25.20
2017-10-19T06:17:59.328Z,25.80
2017-10-19T06:20:26.766Z,25.97
2017-10-19T06:22:54.269Z,24.33
2017-10-19T06:25:21.744Z,21.50
2017-10-19T06:27:49.217Z,25.00
2017-10-19T06:30:17.461Z,26.27
2017-10-19T06:32:44.932Z,25.97
2017-10-19T06:35:12.385Z,25.57
2017-10-19T06:37:39.836Z,29.07
2017-10-19T06:40:07.301Z,24.97
2017-10-19T06:42:34.753Z,25.37
2017-10-19T06:45:02.240Z,24.97
2017-10-19T06:47:29.690Z,24.30
2017-10-19T06:49:57.187Z,25.10
2017-10-19T06:52:24.673Z,27.00
2017-10-19T06:54:52.420Z,25.23
2017-10-19T06:57:19.895Z,25.90
2017-10-19T06:59:47.382Z,23.30
2017-10-19T07:02:15.621Z,27.63
2017-10-19T07:04:43.089Z,25.30
2017-10-19T07:07:10.540Z,30.47
2017-10-19T07:09:38.039Z,27.73
2017-10-19T07:12:05.518Z,30.60
2017-10-19T07:14:33.780Z,32.60
2017-10-19T07:17:01.270Z,33.53
2017-10-19T07:19:28.745Z,37.03
2017-10-19T07:21:56.192Z,32.93
2017-10-19T07:24:24.348Z,32.57
2017-10-19T07:26:51.803Z,33.90
2017-10-19T07:29:20.023Z,35.00
2017-10-19T07:31:47.513Z,35.83
2017-10-19T07:34:14.948Z,34.67
2017-10-19T07:36:42.499Z,32.07
2017-10-19T07:39:09.934Z,38.50
2017-10-19T07:41:37.700Z,37.60
2017-10-19T07:44:05.154Z,38.10
2017-10-19T07:46:32.629Z,35.53
2017-10-19T07:49:00.089Z,38.90
2017-10-19T07:51:27.529Z,37.03
2017-10-19T07:53:55.010Z,35.57
2017-10-19T07:56:22.476Z,37.00
2017-10-19T07:58:49.957Z,35.90
2017-10-19T08:01:17.406Z,36.17
2017-10-19T08:03:44.878Z,32.40
2017-10-19T08:06:13.093Z,32.50
2017-10-19T08:08:40.574Z,36.87
2017-10-19T08:11:08.013Z,38.20
2017-10-19T08:13:35.510Z,34.23
2017-10-19T08:16:02.963Z,34.97
2017-10-19T08:18:30.420Z,37.80
2017-10-19T08:20:58.644Z,35.43
2017-10-19T08:23:26.089Z,38.97
2017-10-19T08:25:54.335Z,37.97
2017-10-19T08:28:21.781Z,38.00
2017-10-19T08:30:49.240Z,39.30
2017-10-19T08:33:16.703Z,40.30
2017-10-19T08:35:44.173Z,38.40
2017-10-19T08:38:11.625Z,38.07
2017-10-19T08:40:39.089Z,38.80
2017-10-19T08:43:06.574Z,39.60
2017-10-19T08:45:34.016Z,35.43
2017-10-19T08:48:02.265Z,39.90
2017-10-19T08:50:29.725Z,40.87
2017-10-19T08:52:57.172Z,36.90
2017-10-19T08:55:24.677Z,37.00
2017-10-19T08:57:52.928Z,39.00
2017-10-19T09:00:20.377Z,37.27
2017-10-19T09:02:47.833Z,37.50
2017-10-19T09:05:15.302Z,39.33
2017-10-19T09:07:42.781Z,37.00
2017-10-19T09:10:11.010Z,35.60
2017-10-19T09:12:38.460Z,36.60
2017-10-19T09:15:05.942Z,34.90
2017-10-19T09:17:33.384Z,36.43
2017-10-19T09:20:00.862Z,33.93
2017-10-19T09:22:28.329Z,34.90
2017-10-19T09:24:55.781Z,34.80
2017-10-19T09:27:23.261Z,36.43
2017-10-19T09:29:51.489Z,33.83
2017-10-19T09:32:18.957Z,36.17
2017-10-19T09:34:46.430Z,37.43
2017-10-19T09:37:13.876Z,37.60
2017-10-19T09:39:41.365Z,30.37
2017-10-19T09:42:09.585Z,35.63
2017-10-19T09:44:37.032Z,36.67
2017-10-19T09:47:04.520Z,35.00
2017-10-19T09:49:31.956Z,40.20
2017-10-19T09:51:59.437Z,41.07
2017-10-19T09:54:26.886Z,39.20
2017-10-19T09:56:54.357Z,38.63
2017-10-19T09:59:21.879Z,36.73
2017-10-19T10:01:49.342Z,40.60
2017-10-19T10:04:16.798Z,36.60
2017-10-19T10:06:44.293Z,44.63
2017-10-19T10:09:11.767Z,40.33
2017-10-19T10:11:39.222Z,38.03
2017-10-19T10:14:07.035Z,40.37
2017-10-19T10:16:34.501Z,43.27
2017-10-19T10:19:01.974Z,39.80
2017-10-19T10:21:29.430Z,40.20
2017-10-19T10:23:56.926Z,41.50
2017-10-19T10:26:25.152Z,37.23
2017-10-19T10:28:52.904Z,43.30
2017-10-19T10:31:20.384Z,42.40
2017-10-19T10:33:47.830Z,42.23
2017-10-19T10:36:15.315Z,38.97
2017-10-19T10:38:42.789Z,38.70
2017-10-19T10:41:10.273Z,39.37
2017-10-19T10:43:38.489Z,40.23
2017-10-19T10:46:05.936Z,45.80
2017-10-19T10:48:33.692Z,45.03
2017-10-19T10:51:01.146Z,38.60
2017-10-19T10:53:28.631Z,37.90
2017-10-19T10:55:56.063Z,42.50
2017-10-19T10:58:23.509Z,38.50
2017-10-19T11:00:50.986Z,44.90
2017-10-19T11:03:18.447Z,39.47
2017-10-19T11:05:45.898Z,36.10
2017-10-19T11:08:13.822Z,38.27
2017-10-19T11:10:41.355Z,41.70
2017-10-19T11:13:08.793Z,38.33
2017-10-19T11:15:36.327Z,35.10
2017-10-19T11:18:03.822Z,40.70
2017-10-19T11:20:31.278Z,37.27
2017-10-19T11:22:58.749Z,36.60
2017-10-19T11:25:26.212Z,37.60
2017-10-19T11:27:53.658Z,36.70
2017-10-19T11:30:21.129Z,42.43
2017-10-19T11:32:48.625Z,40.90
2017-10-19T11:35:16.843Z,38.00
2017-10-19T11:37:44.289Z,40.50
2017-10-19T11:40:11.783Z,41.03
2017-10-19T11:42:39.233Z,39.47
2017-10-19T11:45:06.690Z,37.77
2017-10-19T11:47:34.172Z,37.50
2017-10-19T11:50:02.389Z,40.50
2017-10-19T11:52:29.864Z,39.23
2017-10-19T11:54:57.308Z,38.50
2017-10-19T11:57:24.761Z,39.67
2017-10-19T11:59:52.241Z,40.30
2017-10-19T12:02:19.747Z,38.60
2017-10-19T12:04:47.962Z,41.20
2017-10-19T12:07:15.426Z,37.40
2017-10-19T12:09:42.900Z,38.87
2017-10-19T12:12:10.712Z,39.90
2017-10-19T12:14:38.192Z,39.63
2017-10-19T12:17:05.650Z,38.40
2017-10-19T12:19:33.116Z,41.23
2017-10-19T12:22:00.875Z,34.70
2017-10-19T12:24:28.326Z,41.53
2017-10-19T12:26:55.774Z,40.40
2017-10-19T12:29:23.245Z,41.17
2017-10-19T12:31:50.705Z,39.00
2017-10-19T12:34:18.209Z,38.40
2017-10-19T12:36:45.701Z,35.33
2017-10-19T12:39:13.153Z,37.87
2017-10-19T12:41:40.638Z,38.23
2017-10-19T12:44:08.093Z,36.67
2017-10-19T12:46:35.585Z,36.40
2017-10-19T12:49:03.049Z,41.23
2017-10-19T12:51:30.492Z,40.17
2017-10-19T12:53:57.975Z,36.23
2017-10-19T12:56:25.448Z,40.80
2017-10-19T12:58:53.676Z,39.20
2017-10-19T13:01:21.142Z,44.70
2017-10-19T13:03:48.622Z,35.60
2017-10-19T13:06:16.077Z,38.60
2017-10-19T13:08:43.532Z,42.57
2017-10-19T13:11:11.001Z,36.27
2017-10-19T13:13:38.469Z,41.10
2017-10-19T13:16:06.717Z,40.50
2017-10-19T13:18:34.173Z,41.13
2017-10-19T13:21:01.636Z,33.90
2017-10-19T13:23:29.358Z,41.13
2017-10-19T13:25:56.829Z,39.30
2017-10-19T13:28:24.295Z,39.97
2017-10-19T13:30:51.780Z,41.97
2017-10-19T13:33:19.286Z,41.33
2017-10-19T13:35:46.744Z,37.77
2017-10-19T13:38:14.197Z,33.97
2017-10-19T13:40:41.650Z,40.97
2017-10-19T13:43:09.128Z,40.73
2017-10-19T13:45:36.584Z,36.93
2017-10-19T13:48:04.034Z,35.20
2017-10-19T13:50:31.509Z,39.67
2017-10-19T13:52:58.965Z,34.97
2017-10-19T13:55:26.657Z,39.37
2017-10-19T13:57:54.133Z,39.30
2017-10-19T14:00:22.370Z,36.50
2017-10-19T14:02:49.845Z,36.20
2017-10-19T14:05:17.342Z,36.80
2017-10-19T14:07:44.784Z,35.97
2017-10-19T14:10:13.043Z,39.40
2017-10-19T14:12:40.555Z,40.17
2017-10-19T14:15:07.994Z,39.90
2017-10-19T14:17:35.446Z,38.13
2017-10-19T14:20:03.685Z,38.07
2017-10-19T14:22:31.163Z,36.67
2017-10-19T14:24:58.666Z,38.87
2017-10-19T14:27:26.122Z,39.60
2017-10-19T14:29:53.604Z,42.90
2017-10-19T14:32:21.057Z,42.17
2017-10-19T14:34:48.527Z,39.67
2017-10-19T14:37:15.978Z,41.43
2017-10-19T14:39:43.741Z,37.53
2017-10-19T14:42:11.202Z,41.50
2017-10-19T14:44:38.655Z,34.80
2017-10-19T14:47:07.216Z,39.00
2017-10-19T14:49:34.690Z,39.10
2017-10-19T14:52:02.174Z,35.80
2017-10-19T14:54:29.686Z,37.03
2017-10-19T14:56:57.965Z,38.27
2017-10-19T14:59:25.436Z,38.50
2017-10-19T15:01:52.982Z,39.50
2017-10-19T15:04:20.443Z,37.03
2017-10-19T15:06:47.918Z,41.03
2017-10-19T15:09:15.362Z,37.67
2017-10-19T15:11:42.835Z,38.27
2017-10-19T15:14:10.282Z,38.77
2017-10-19T15:16:37.758Z,38.83
2017-10-19T15:19:05.224Z,38.80
2017-10-19T15:21:32.665Z,42.23
2017-10-19T15:24:00.146Z,39.87
2017-10-19T15:26:27.593Z,38.10
2017-10-19T15:28:55.046Z,43.03
2017-10-19T15:31:22.522Z,41.90
2017-10-19T15:33:50.136Z,42.40
2017-10-19T15:36:17.585Z,41.43
2017-10-19T15:38:45.045Z,40.33
2017-10-19T15:41:12.518Z,37.73
2017-10-19T15:43:39.974Z,40.40
2017-10-19T15:46:07.445Z,40.60
2017-10-19T15:48:34.921Z,40.93
2017-10-19T15:51:13.389Z,42.87
2017-10-19T15:53:40.878Z,40.13
2017-10-19T15:56:08.345Z,40.27
2017-10-19T15:58:35.834Z,41.90
2017-10-19T16:01:04.053Z,43.43
2017-10-19T16:03:31.526Z,40.30
2017-10-19T16:05:58.967Z,43.20
2017-10-19T16:08:26.419Z,44.67
2017-10-19T16:10:53.876Z,41.67
2017-10-19T16:13:24.530Z,43.73
2017-10-19T16:15:52.075Z,43.00
2017-10-19T16:18:19.505Z,43.60
2017-10-19T16:20:46.981Z,41.00
2017-10-19T16:23:14.470Z,40.90
2017-10-19T16:25:41.921Z,46.20
2017-10-19T16:28:09.374Z,47.37
2017-10-19T16:30:37.124Z,41.03
2017-10-19T16:33:04.561Z,44.13
2017-10-19T16:35:32.005Z,47.77
2017-10-19T16:37:59.468Z,45.77
2017-10-19T16:40:27.747Z,49.30
2017-10-19T16:42:55.973Z,46.63
2017-10-19T16:45:23.454Z,49.47
2017-10-19T16:47:50.906Z,47.07
2017-10-19T16:50:18.354Z,49.53
2017-10-19T16:52:45.817Z,50.30
2017-10-19T16:55:13.289Z,49.47
2017-10-19T16:57:40.758Z,51.23
2017-10-19T17:00:08.974Z,43.70
2017-10-19T17:02:36.449Z,48.27
2017-10-19T17:05:03.988Z,50.03
2017-10-19T17:07:31.466Z,50.37
2017-10-19T17:09:58.908Z,53.67
2017-10-19T17:12:26.380Z,46.10
2017-10-19T17:14:53.836Z,47.60
2017-10-19T17:17:21.382Z,46.07
2017-10-19T17:19:48.826Z,47.80
2017-10-19T17:22:16.319Z,45.80
2017-10-19T17:24:43.854Z,48.00
2017-10-19T17:27:11.313Z,48.73
2017-10-19T17:29:38.795Z,47.90
2017-10-19T17:32:06.260Z,50.03
2017-10-19T17:34:33.713Z,50.87
2017-10-19T17:37:02.009Z,51.13
2017-10-19T17:39:29.455Z,47.77
2017-10-19T17:41:56.900Z,50.77
2017-10-19T17:44:24.386Z,54.00
2017-10-19T17:46:51.842Z,50.03
2017-10-19T17:49:19.304Z,51.40
2017-10-19T17:51:46.860Z,45.97
2017-10-19T17:54:14.320Z,46.47
2017-10-19T17:56:41.805Z,52.57
2017-10-19T17:59:10.030Z,53.03
2017-10-19T18:01:37.526Z,52.07
2017-10-19T18:04:05.749Z,52.93
2017-10-19T18:06:33.497Z,55.93
2017-10-19T18:09:00.975Z,54.70
2017-10-19T18:14:21.317Z,52.27
2017-10-19T18:16:48.766Z,49.47
2017-10-19T18:19:16.213Z,52.40
2017-10-19T18:21:43.693Z,52.53
2017-10-19T18:24:11.909Z,52.50
2017-10-19T18:26:39.358Z,57.90
2017-10-19T18:29:06.849Z,57.67
2017-10-19T18:31:34.300Z,57.77
2017-10-19T18:34:01.763Z,44.87
2017-10-19T18:36:29.239Z,53.10
2017-10-19T18:38:56.683Z,53.60
2017-10-19T18:41:24.133Z,59.07
2017-10-19T18:43:51.630Z,54.63
2017-10-19T18:46:19.064Z,59.00
2017-10-19T18:48:46.514Z,55.37
2017-10-19T18:51:13.980Z,58.30
2017-10-19T18:53:41.433Z,50.63
2017-10-19T18:56:08.944Z,55.83
2017-10-19T18:58:36.806Z,60.67
2017-10-19T19:01:05.115Z,55.63
2017-10-19T19:03:32.549Z,60.30
2017-10-19T19:06:00.025Z,56.60
2017-10-19T19:08:27.485Z,56.27
2017-10-19T19:10:54.942Z,54.97
2017-10-19T19:13:22.434Z,59.90
2017-10-19T19:15:49.894Z,60.67
2017-10-19T19:18:17.350Z,57.80
2017-10-19T19:20:44.834Z,53.33
2017-10-19T19:23:13.068Z,54.70
2017-10-19T19:25:41.318Z,59.83
2017-10-19T19:28:08.882Z,55.27
2017-10-19T19:30:36.349Z,64.40
2017-10-19T19:33:03.824Z,53.23
2017-10-19T19:35:31.272Z,57.57
2017-10-19T19:37:58.717Z,54.17
2017-10-19T19:40:26.205Z,52.50
2017-10-19T19:42:53.648Z,60.30
2017-10-19T19:45:21.123Z,55.93
2017-10-19T19:47:48.565Z,61.70
2017-10-19T19:50:16.062Z,53.80
2017-10-19T19:52:43.502Z,45.63
2017-10-19T19:55:10.948Z,55.67
2017-10-19T19:57:38.430Z,55.63
2017-10-19T20:00:07.411Z,55.70
2017-10-19T20:02:34.858Z,56.10
2017-10-19T20:05:02.321Z,55.27
2017-10-19T20:07:29.765Z,55.53
2017-10-19T20:09:57.234Z,55.30
2017-10-19T20:12:24.684Z,53.07
2017-10-19T20:14:52.161Z,60.83
2017-10-19T20:17:19.630Z,62.13
2017-10-19T20:19:47.080Z,57.67
2017-10-19T20:22:14.558Z,55.13
2017-10-19T20:24:42.761Z,61.00
2017-10-19T20:27:10.242Z,58.27
2017-10-19T20:29:37.686Z,63.53
2017-10-19T20:32:06.067Z,59.37
2017-10-19T20:34:33.513Z,57.33
2017-10-19T20:37:00.965Z,62.40
2017-10-19T20:39:28.442Z,62.30
2017-10-19T20:41:55.890Z,58.10
2017-10-19T20:44:23.365Z,51.23
2017-10-19T20:46:51.584Z,57.07
2017-10-19T20:49:20.101Z,53.73
2017-10-19T20:51:47.579Z,54.13
2017-10-19T20:54:15.322Z,57.00
2017-10-19T20:56:42.781Z,59.10
2017-10-19T20:59:10.250Z,56.17
2017-10-19T21:01:37.695Z,59.40
2017-10-19T21:04:05.169Z,59.03
2017-10-19T21:06:32.637Z,57.93
2017-10-19T21:09:00.873Z,63.07
2017-10-19T21:11:28.336Z,62.70
2017-10-19T21:13:55.793Z,56.37
2017-10-19T21:16:23.261Z,60.03
2017-10-19T21:18:50.734Z,58.43
2017-10-19T21:21:18.176Z,61.60
2017-10-19T21:23:45.641Z,60.80
2017-10-19T21:26:13.192Z,54.60
2017-10-19T21:28:40.632Z,54.17
2017-10-19T21:31:08.105Z,62.83
2017-10-19T21:33:35.565Z,58.80
2017-10-19T21:36:03.041Z,59.17
2017-10-19T21:38:30.489Z,59.33
2017-10-19T21:40:57.941Z,62.60
2017-10-19T21:43:25.409Z,60.60
2017-10-19T21:45:52.855Z,61.20
2017-10-19T21:48:20.338Z,63.13
2017-10-19T21:50:47.808Z,61.00
2017-10-19T21:53:15.259Z,57.50
2017-10-19T21:55:42.717Z,57.37
2017-10-19T21:58:10.191Z,60.10
2017-10-19T22:00:37.642Z,58.40
2017-10-19T22:03:05.101Z,58.43
2017-10-19T22:05:32.613Z,58.03
2017-10-19T22:08:00.070Z,62.10
2017-10-19T22:10:27.532Z,61.93
2017-10-19T22:12:54.989Z,61.10
2017-10-19T22:15:22.452Z,61.23
2017-10-19T22:17:49.897Z,61.90
2017-10-19T22:20:17.367Z,61.20
2017-10-19T22:22:44.850Z,58.60
2017-10-19T22:25:12.306Z,58.53
2017-10-19T22:27:40.517Z,61.23
2017-10-19T22:30:08.756Z,62.73
2017-10-19T22:32:36.210Z,61.77
2017-10-19T22:35:03.666Z,60.47
2017-10-19T22:37:31.138Z,63.40
2017-10-19T22:39:58.592Z,60.07
2017-10-19T22:42:26.055Z,64.97
2017-10-19T22:44:53.534Z,58.13
2017-10-19T22:47:21.751Z,62.53
2017-10-19T22:49:49.230Z,56.90
2017-10-19T22:52:16.684Z,56.30
2017-10-19T22:54:44.137Z,56.67
2017-10-19T22:57:11.607Z,58.90
2017-10-19T22:59:39.065Z,56.53
2017-10-19T23:02:06.521Z,59.23
2017-10-19T23:04:34.001Z,56.30
2017-10-19T23:07:01.490Z,58.30
2017-10-19T23:09:28.937Z,56.50
2017-10-19T23:11:57.156Z,57.00
2017-10-19T23:14:24.912Z,58.00
2017-10-19T23:16:52.349Z,56.97
2017-10-19T23:19:19.816Z,60.37
2017-10-19T23:21:47.304Z,56.10
2017-10-19T23:24:14.744Z,59.60
2017-10-19T23:26:42.201Z,56.17
2017-10-19T23:29:09.672Z,57.17
2017-10-19T23:31:37.130Z,62.47
2017-10-19T23:34:04.585Z,57.43
2017-10-19T23:36:32.064Z,57.73
2017-10-19T23:38:59.508Z,60.83
2017-10-19T23:41:26.958Z,63.73
2017-10-19T23:43:54.420Z,61.43
2017-10-19T23:46:22.667Z,58.90
2017-10-19T23:48:50.105Z,60.27
2017-10-19T23:51:17.588Z,63.20
2017-10-19T23:53:45.049Z,61.13
2017-10-19T23:56:12.504Z,58.13
2017-10-19T23:58:40.063Z,52.90
